createdAt,value
2017-05-11T00:00:24.669Z,0
2017-05-11T00:01:34.688Z,0
2017-05-11T00:02:45.021Z,0
2017-05-11T00:03:54.731Z,0
2017-05-11T00:05:04.125Z,0
2017-05-11T00:06:13.518Z,0
2017-05-11T00:07:23.855Z,0
2017-05-11T00:08:33.558Z,0
2017-05-11T00:09:42.638Z,0
2017-05-11T00:10:52.350Z,0
2017-05-11T00:12:02.382Z,0
2017-05-11T00:13:12.723Z,0
2017-05-11T00:14:22.745Z,0
2017-05-11T00:15:32.454Z,0
2017-05-11T00:16:42.478Z,0
2017-05-11T00:17:52.184Z,0
2017-05-11T00:19:01.892Z,0
2017-05-11T00:20:11.910Z,0
2017-05-11T00:21:21.613Z,0
2017-05-11T00:22:31.949Z,0
2017-05-11T00:23:41.665Z,0
2017-05-11T00:24:51.685Z,0
2017-05-11T00:26:01.708Z,0
2017-05-11T00:27:11.100Z,0
2017-05-11T00:28:20.802Z,0
2017-05-11T00:29:30.512Z,0
2017-05-11T00:30:40.538Z,0
2017-05-11T00:31:49.933Z,0
2017-05-11T00:32:59.325Z,0
2017-05-11T00:34:09.030Z,0
2017-05-11T00:35:19.059Z,0
2017-05-11T00:36:28.762Z,0
2017-05-11T00:37:38.154Z,0
2017-05-11T00:38:48.180Z,0
2017-05-11T00:39:58.513Z,0
2017-05-11T00:41:07.900Z,0
2017-05-11T00:42:18.234Z,0
2017-05-11T00:43:28.570Z,0
2017-05-11T00:44:37.963Z,0
2017-05-11T00:45:47.985Z,0
2017-05-11T00:46:58.007Z,0
2017-05-11T00:48:07.709Z,0
2017-05-11T00:49:17.101Z,0
2017-05-11T00:50:26.814Z,0
2017-05-11T00:51:36.247Z,0
2017-05-11T00:52:46.266Z,0
2017-05-11T00:53:55.975Z,0
2017-05-11T00:55:05.363Z,0
2017-05-11T00:56:15.069Z,0
2017-05-11T00:57:25.080Z,0
2017-05-11T00:58:35.416Z,0
2017-05-11T00:59:44.811Z,0
2017-05-11T01:00:54.824Z,0
2017-05-11T01:02:05.170Z,0
2017-05-11T01:03:14.878Z,0
2017-05-11T01:04:24.899Z,0
2017-05-11T01:05:34.924Z,0
2017-05-11T01:06:44.944Z,0
2017-05-11T01:07:54.962Z,0
2017-05-11T01:09:04.358Z,0
2017-05-11T01:10:14.390Z,0
2017-05-11T01:11:24.410Z,0
2017-05-11T01:12:34.106Z,0
2017-05-11T01:13:43.857Z,0
2017-05-11T01:14:53.567Z,0
2017-05-11T01:16:03.274Z,0
2017-05-11T01:17:12.662Z,0
2017-05-11T01:18:22.417Z,0
2017-05-11T01:19:32.441Z,0
2017-05-11T01:20:42.462Z,0
2017-05-11T01:21:51.848Z,0
2017-05-11T01:23:01.560Z,0
2017-05-11T01:24:11.895Z,0
2017-05-11T01:25:22.226Z,0
2017-05-11T01:26:31.932Z,0
2017-05-11T01:27:41.951Z,0
2017-05-11T01:28:52.288Z,0
2017-05-11T01:30:01.367Z,0
2017-05-11T01:31:10.760Z,0
2017-05-11T01:32:20.163Z,0
2017-05-11T01:33:29.556Z,0
2017-05-11T01:34:39.571Z,0
2017-05-11T01:35:49.278Z,0
2017-05-11T01:36:59.306Z,0
2017-05-11T01:38:09.321Z,0
2017-05-11T01:39:19.339Z,0
2017-05-11T01:40:29.044Z,0
2017-05-11T01:41:39.380Z,0
2017-05-11T01:42:48.769Z,0
2017-05-11T01:43:58.475Z,0
2017-05-11T01:45:08.185Z,0
2017-05-11T01:46:17.899Z,0
2017-05-11T01:47:27.922Z,0
2017-05-11T01:48:37.011Z,0
2017-05-11T01:49:46.712Z,0
2017-05-11T01:50:56.738Z,0
2017-05-11T01:52:06.133Z,0
2017-05-11T01:53:16.151Z,0
2017-05-11T01:54:26.170Z,0
2017-05-11T01:55:36.190Z,0
2017-05-11T01:56:46.209Z,0
2017-05-11T01:57:56.236Z,0
2017-05-11T01:59:05.323Z,0
2017-05-11T02:00:14.708Z,0
2017-05-11T02:01:24.446Z,0
2017-05-11T02:02:34.159Z,0
2017-05-11T02:03:43.863Z,0
2017-05-11T02:04:54.205Z,0
2017-05-11T02:06:04.539Z,0
2017-05-11T02:07:14.255Z,0
2017-05-11T02:08:23.965Z,0
2017-05-11T02:09:33.986Z,0
2017-05-11T02:10:44.003Z,0
2017-05-11T02:11:53.706Z,0
2017-05-11T02:13:03.452Z,0
2017-05-11T02:14:12.846Z,0
2017-05-11T02:15:23.183Z,0
2017-05-11T02:16:32.579Z,0
2017-05-11T02:17:42.915Z,0
2017-05-11T02:18:52.927Z,0
2017-05-11T02:20:02.628Z,0
2017-05-11T02:21:12.022Z,0
2017-05-11T02:22:22.048Z,0
2017-05-11T02:23:32.069Z,0
2017-05-11T02:24:41.772Z,0
2017-05-11T02:25:51.803Z,0
2017-05-11T02:27:01.196Z,0
2017-05-11T02:28:10.583Z,0
2017-05-11T02:29:20.599Z,0
2017-05-11T02:30:30.304Z,0
2017-05-11T02:31:40.013Z,0
2017-05-11T02:32:49.725Z,0
2017-05-11T02:33:59.429Z,0
2017-05-11T02:35:09.154Z,0
2017-05-11T02:36:18.860Z,0
2017-05-11T02:37:28.570Z,0
2017-05-11T02:38:38.590Z,0
2017-05-11T02:39:48.928Z,0
2017-05-11T02:40:58.318Z,0
2017-05-11T02:42:08.652Z,0
2017-05-11T02:43:18.669Z,0
2017-05-11T02:44:28.063Z,0
2017-05-11T02:45:37.766Z,0
2017-05-11T02:46:47.476Z,0
2017-05-11T02:47:56.869Z,0
2017-05-11T02:49:06.887Z,0
2017-05-11T02:50:15.976Z,0
2017-05-11T02:51:25.681Z,0
2017-05-11T02:52:36.012Z,0
2017-05-11T02:53:46.035Z,0
2017-05-11T02:54:55.432Z,0
2017-05-11T02:56:05.466Z,0
2017-05-11T02:57:15.478Z,0
2017-05-11T02:58:25.497Z,0
2017-05-11T02:59:34.896Z,0
2017-05-11T03:00:44.609Z,0
2017-05-11T03:01:54.628Z,0
2017-05-11T03:03:04.339Z,0
2017-05-11T03:04:14.356Z,0
2017-05-11T03:05:24.693Z,0
2017-05-11T03:06:34.399Z,0
2017-05-11T03:07:44.430Z,0
2017-05-11T03:08:54.453Z,0
2017-05-11T03:10:04.156Z,0
2017-05-11T03:11:13.860Z,0
2017-05-11T03:12:23.560Z,0
2017-05-11T03:13:32.956Z,0
2017-05-11T03:14:43.288Z,0
2017-05-11T03:15:53.305Z,0
2017-05-11T03:17:03.642Z,0
2017-05-11T03:18:13.347Z,0
2017-05-11T03:19:23.056Z,0
2017-05-11T03:20:32.444Z,0
2017-05-11T03:21:42.191Z,0
2017-05-11T03:22:52.518Z,0
2017-05-11T03:24:02.221Z,0
2017-05-11T03:25:11.924Z,0
2017-05-11T03:26:21.627Z,0
2017-05-11T03:27:31.028Z,0
2017-05-11T03:28:40.774Z,0
2017-05-11T03:29:50.836Z,0
2017-05-11T03:31:00.584Z,0
2017-05-11T03:32:10.611Z,0
2017-05-11T03:33:20.331Z,0
2017-05-11T03:34:30.673Z,0
2017-05-11T03:35:40.695Z,0
2017-05-11T03:36:50.401Z,0
2017-05-11T03:37:59.796Z,5
2017-05-11T03:39:09.504Z,5
2017-05-11T03:40:19.521Z,5
2017-05-11T03:41:28.916Z,5
2017-05-11T03:42:37.997Z,5
2017-05-11T03:43:48.019Z,5
2017-05-11T03:44:58.056Z,10
2017-05-11T03:46:07.446Z,10
2017-05-11T03:47:17.457Z,10
2017-05-11T03:48:27.480Z,10
2017-05-11T03:49:37.544Z,15
2017-05-11T03:50:46.933Z,15
2017-05-11T03:51:56.010Z,15
2017-05-11T03:53:05.088Z,20
2017-05-11T03:54:14.488Z,20
2017-05-11T03:55:24.195Z,20
2017-05-11T03:56:34.217Z,25
2017-05-11T03:57:43.296Z,25
2017-05-11T03:58:53.320Z,30
2017-05-11T04:00:03.349Z,30
2017-05-11T04:01:13.364Z,35
2017-05-11T04:02:23.384Z,35
2017-05-11T04:03:32.778Z,40
2017-05-11T04:04:42.482Z,40
2017-05-11T04:05:52.501Z,45
2017-05-11T04:07:02.523Z,45
2017-05-11T04:08:12.548Z,50
2017-05-11T04:09:22.251Z,50
2017-05-11T04:10:31.643Z,55
2017-05-11T04:11:41.667Z,55
2017-05-11T04:12:51.691Z,60
2017-05-11T04:14:01.391Z,60
2017-05-11T04:15:11.730Z,65
2017-05-11T04:16:22.062Z,65
2017-05-11T04:17:32.390Z,70
2017-05-11T04:18:42.422Z,70
2017-05-11T04:19:51.821Z,75
2017-05-11T04:21:02.157Z,75
2017-05-11T04:22:11.240Z,80
2017-05-11T04:23:20.630Z,85
2017-05-11T04:24:30.336Z,85
2017-05-11T04:25:40.357Z,90
2017-05-11T04:26:50.417Z,90
2017-05-11T04:28:00.124Z,95
2017-05-11T04:29:09.833Z,100
2017-05-11T04:30:19.856Z,100
2017-05-11T04:31:29.870Z,105
2017-05-11T04:32:39.895Z,110
2017-05-11T04:33:50.235Z,110
2017-05-11T04:34:59.626Z,115
2017-05-11T04:36:09.642Z,115
2017-05-11T04:37:19.028Z,115
2017-05-11T04:38:28.734Z,120
2017-05-11T04:39:38.126Z,120
2017-05-11T04:40:48.138Z,125
2017-05-11T04:41:58.152Z,130
2017-05-11T04:43:07.858Z,130
2017-05-11T04:44:17.560Z,135
2017-05-11T04:45:26.958Z,140
2017-05-11T04:46:37.031Z,145
2017-05-11T04:47:46.736Z,145
2017-05-11T04:48:56.766Z,150
2017-05-11T04:50:06.475Z,150
2017-05-11T04:51:16.487Z,155
2017-05-11T04:52:26.197Z,160
2017-05-11T04:53:36.223Z,160
2017-05-11T04:54:45.923Z,165
2017-05-11T04:55:55.937Z,165
2017-05-11T04:57:05.329Z,170
2017-05-11T04:58:15.034Z,170
2017-05-11T04:59:24.744Z,175
2017-05-11T05:00:34.452Z,180
2017-05-11T05:01:44.785Z,180
2017-05-11T05:02:55.118Z,180
2017-05-11T05:04:04.825Z,185
2017-05-11T05:05:14.219Z,185
2017-05-11T05:06:24.555Z,185
2017-05-11T05:07:33.634Z,185
2017-05-11T05:08:43.042Z,185
2017-05-11T05:09:53.384Z,190
2017-05-11T05:11:02.770Z,195
2017-05-11T05:12:12.471Z,200
2017-05-11T05:13:22.526Z,200
2017-05-11T05:14:32.858Z,200
2017-05-11T05:15:42.876Z,200
2017-05-11T05:16:51.654Z,200
2017-05-11T05:18:01.365Z,200
2017-05-11T05:19:10.758Z,200
2017-05-11T05:20:20.146Z,200
2017-05-11T05:21:29.539Z,200
2017-05-11T05:22:39.558Z,200
2017-05-11T05:23:49.582Z,200
2017-05-11T05:24:59.293Z,200
2017-05-11T05:26:08.719Z,200
2017-05-11T05:27:18.106Z,200
2017-05-11T05:28:27.812Z,200
2017-05-11T05:29:37.822Z,200
2017-05-11T05:30:48.166Z,200
2017-05-11T05:31:57.880Z,195
2017-05-11T05:33:07.903Z,195
2017-05-11T05:34:17.931Z,190
2017-05-11T05:35:27.949Z,185
2017-05-11T05:36:38.287Z,175
2017-05-11T05:37:48.623Z,175
2017-05-11T05:38:58.330Z,180
2017-05-11T05:40:08.352Z,180
2017-05-11T05:41:18.059Z,180
2017-05-11T05:42:28.076Z,180
2017-05-11T05:43:37.785Z,185
2017-05-11T05:44:47.804Z,190
2017-05-11T05:45:57.817Z,195
2017-05-11T05:47:07.847Z,200
2017-05-11T05:48:17.552Z,200
2017-05-11T05:49:27.592Z,205
2017-05-11T05:50:37.924Z,210
2017-05-11T05:51:47.318Z,215
2017-05-11T05:52:57.364Z,215
2017-05-11T05:54:07.704Z,215
2017-05-11T05:55:18.033Z,220
2017-05-11T05:56:27.113Z,220
2017-05-11T05:57:37.459Z,225
2017-05-11T05:58:47.487Z,225
2017-05-11T05:59:57.824Z,230
2017-05-11T06:01:07.849Z,230
2017-05-11T06:02:17.550Z,235
2017-05-11T06:03:27.577Z,235
2017-05-11T06:04:37.909Z,240
2017-05-11T06:05:47.634Z,255
2017-05-11T06:06:57.343Z,270
2017-05-11T06:08:06.733Z,285
2017-05-11T06:09:17.086Z,295
2017-05-11T06:10:26.794Z,305
2017-05-11T06:11:36.183Z,305
2017-05-11T06:12:45.892Z,305
2017-05-11T06:13:55.600Z,310
2017-05-11T06:15:05.306Z,320
2017-05-11T06:16:14.702Z,320
2017-05-11T06:17:25.046Z,325
2017-05-11T06:18:34.447Z,330
2017-05-11T06:19:44.161Z,340
2017-05-11T06:20:54.497Z,345
2017-05-11T06:22:03.568Z,350
2017-05-11T06:23:13.611Z,350
2017-05-11T06:24:23.324Z,355
2017-05-11T06:25:32.718Z,365
2017-05-11T06:26:42.736Z,360
2017-05-11T06:27:52.762Z,365
2017-05-11T06:29:03.092Z,365
2017-05-11T06:30:13.119Z,365
2017-05-11T06:31:22.822Z,380
2017-05-11T06:32:33.158Z,415
2017-05-11T06:33:43.179Z,460
2017-05-11T06:34:52.890Z,440
2017-05-11T06:36:02.609Z,415
2017-05-11T06:37:12.001Z,420
2017-05-11T06:38:22.331Z,435
2017-05-11T06:39:32.045Z,435
2017-05-11T06:40:42.066Z,415
2017-05-11T06:41:52.097Z,385
2017-05-11T06:43:02.116Z,360
2017-05-11T06:44:11.198Z,360
2017-05-11T06:45:20.909Z,355
2017-05-11T06:46:30.934Z,355
2017-05-11T06:47:40.020Z,360
2017-05-11T06:48:49.112Z,360
2017-05-11T06:49:59.138Z,355
2017-05-11T06:51:08.533Z,360
2017-05-11T06:52:18.556Z,360
2017-05-11T06:53:28.602Z,365
2017-05-11T06:54:38.945Z,370
2017-05-11T06:55:48.972Z,375
2017-05-11T06:56:58.372Z,380
2017-05-11T06:58:08.413Z,385
2017-05-11T06:59:17.811Z,395
2017-05-11T07:00:27.226Z,405
2017-05-11T07:01:37.255Z,435
2017-05-11T07:02:47.598Z,525
2017-05-11T07:03:57.633Z,865
2017-05-11T07:05:07.670Z,1080
2017-05-11T07:06:17.378Z,1130
2017-05-11T07:07:27.090Z,1125
2017-05-11T07:08:36.809Z,1150
2017-05-11T07:09:45.900Z,1210
2017-05-11T07:10:55.619Z,1195
2017-05-11T07:12:05.331Z,1250
2017-05-11T07:13:14.731Z,1275
2017-05-11T07:14:24.127Z,1320
2017-05-11T07:15:34.160Z,1270
2017-05-11T07:16:44.190Z,1210
2017-05-11T07:17:53.597Z,1135
2017-05-11T07:19:03.630Z,1210
2017-05-11T07:20:13.352Z,1255
2017-05-11T07:21:23.694Z,1255
2017-05-11T07:22:33.731Z,1270
2017-05-11T07:23:43.443Z,1250
2017-05-11T07:24:52.844Z,1270
2017-05-11T07:26:02.594Z,1340
2017-05-11T07:27:12.310Z,1310
2017-05-11T07:28:22.654Z,1290
2017-05-11T07:29:32.371Z,1380
2017-05-11T07:30:42.405Z,1290
2017-05-11T07:31:52.128Z,1075
2017-05-11T07:33:01.846Z,1230
2017-05-11T07:34:11.572Z,1390
2017-05-11T07:35:21.950Z,1445
2017-05-11T07:36:31.673Z,1435
2017-05-11T07:37:41.384Z,1300
2017-05-11T07:38:51.103Z,1355
2017-05-11T07:40:00.824Z,1480
2017-05-11T07:41:11.171Z,1525
2017-05-11T07:42:20.888Z,1570
2017-05-11T07:43:30.926Z,1550
2017-05-11T07:44:41.307Z,1545
2017-05-11T07:45:51.041Z,1510
2017-05-11T07:46:59.819Z,1590
2017-05-11T07:48:09.222Z,1605
2017-05-11T07:49:19.262Z,1515
2017-05-11T07:50:29.298Z,1550
2017-05-11T07:51:39.328Z,1660
2017-05-11T07:52:48.424Z,1640
2017-05-11T07:53:57.515Z,1620
2017-05-11T07:55:06.612Z,1700
2017-05-11T07:56:16.345Z,1745
2017-05-11T07:57:26.057Z,1650
2017-05-11T07:58:36.087Z,1655
2017-05-11T07:59:46.163Z,1690
2017-05-11T08:00:55.885Z,1620
2017-05-11T08:02:05.294Z,1650
2017-05-11T08:03:15.335Z,1710
2017-05-11T08:04:25.408Z,1670
2017-05-11T08:05:35.449Z,1690
2017-05-11T08:06:45.172Z,1695
2017-05-11T08:07:54.899Z,1715
2017-05-11T08:09:04.627Z,1665
2017-05-11T08:10:14.666Z,1700
2017-05-11T08:11:25.021Z,1715
2017-05-11T08:12:35.062Z,1695
2017-05-11T08:13:44.795Z,1680
2017-05-11T08:14:54.834Z,1765
2017-05-11T08:16:04.611Z,1730
2017-05-11T08:17:14.029Z,1790
2017-05-11T08:18:24.074Z,1760
2017-05-11T08:19:33.802Z,1790
2017-05-11T08:20:43.835Z,1780
2017-05-11T08:21:53.566Z,1810
2017-05-11T08:23:03.603Z,1780
2017-05-11T08:24:13.648Z,1760
2017-05-11T08:25:23.684Z,1785
2017-05-11T08:26:34.033Z,1830
2017-05-11T08:27:43.753Z,1830
2017-05-11T08:28:53.487Z,1720
2017-05-11T08:30:03.207Z,1785
2017-05-11T08:31:12.933Z,1910
2017-05-11T08:32:22.657Z,1960
2017-05-11T08:33:32.379Z,1970
2017-05-11T08:34:42.123Z,1985
2017-05-11T08:35:51.855Z,1935
2017-05-11T08:37:01.895Z,2065
2017-05-11T08:38:11.638Z,2040
2017-05-11T08:39:21.091Z,2080
2017-05-11T08:40:31.447Z,2055
2017-05-11T08:41:41.533Z,2080
2017-05-11T08:42:51.621Z,2120
2017-05-11T08:44:01.036Z,2055
2017-05-11T08:45:11.080Z,2170
2017-05-11T08:46:20.496Z,2200
2017-05-11T08:47:30.231Z,2215
2017-05-11T08:48:40.272Z,2010
2017-05-11T08:49:49.690Z,1520
2017-05-11T08:50:59.728Z,1405
2017-05-11T08:52:09.772Z,1375
2017-05-11T08:53:19.819Z,1435
2017-05-11T08:54:29.858Z,1440
2017-05-11T08:55:39.899Z,1510
2017-05-11T08:56:49.944Z,1530
2017-05-11T08:57:59.668Z,1605
2017-05-11T08:59:09.076Z,1600
2017-05-11T09:00:18.815Z,1640
2017-05-11T09:01:29.170Z,1655
2017-05-11T09:02:38.270Z,1690
2017-05-11T09:03:48.002Z,1630
2017-05-11T09:04:58.044Z,1620
2017-05-11T09:06:08.090Z,1680
2017-05-11T09:07:17.499Z,1700
2017-05-11T09:08:27.225Z,1585
2017-05-11T09:09:37.577Z,1235
2017-05-11T09:10:47.303Z,1135
2017-05-11T09:11:57.035Z,1245
2017-05-11T09:13:06.762Z,805
2017-05-11T09:14:16.177Z,1175
2017-05-11T09:15:25.906Z,1255
2017-05-11T09:16:35.322Z,1515
2017-05-11T09:17:45.052Z,1140
2017-05-11T09:18:54.469Z,1900
2017-05-11T09:20:04.825Z,1155
2017-05-11T09:21:14.870Z,3080
2017-05-11T09:22:24.285Z,2785
2017-05-11T09:23:34.320Z,2525
2017-05-11T09:24:44.716Z,1455
2017-05-11T09:25:54.479Z,1660
2017-05-11T09:27:04.525Z,1235
2017-05-11T09:28:14.252Z,975
2017-05-11T09:29:23.974Z,955
2017-05-11T09:30:33.700Z,1210
2017-05-11T09:31:43.108Z,1295
2017-05-11T09:32:53.152Z,1350
2017-05-11T09:34:02.882Z,1190
2017-05-11T09:35:12.612Z,955
2017-05-11T09:36:22.340Z,950
2017-05-11T09:37:32.065Z,1010
2017-05-11T09:38:42.116Z,1265
2017-05-11T09:39:51.848Z,2250
2017-05-11T09:41:01.297Z,1835
2017-05-11T09:42:11.334Z,2600
2017-05-11T09:43:21.063Z,2610
2017-05-11T09:44:30.793Z,1400
2017-05-11T09:45:39.892Z,1475
2017-05-11T09:46:49.936Z,1415
2017-05-11T09:48:00.287Z,1855
2017-05-11T09:49:10.020Z,1815
2017-05-11T09:50:20.070Z,2270
2017-05-11T09:51:29.797Z,2045
2017-05-11T09:52:39.839Z,2650
2017-05-11T09:53:49.874Z,2670
2017-05-11T09:54:59.645Z,2775
2017-05-11T09:56:09.375Z,2670
2017-05-11T09:57:19.417Z,2455
2017-05-11T09:58:29.464Z,2735
2017-05-11T09:59:39.190Z,2620
2017-05-11T10:00:48.606Z,2630
2017-05-11T10:01:57.700Z,1640
2017-05-11T10:03:07.742Z,2165
2017-05-11T10:04:17.467Z,1640
2017-05-11T10:05:26.568Z,2030
2017-05-11T10:06:36.611Z,2610
2017-05-11T10:07:46.655Z,2685
2017-05-11T10:08:56.380Z,1740
2017-05-11T10:10:06.431Z,2755
2017-05-11T10:11:15.536Z,1470
2017-05-11T10:12:25.259Z,2850
2017-05-11T10:13:35.304Z,2995
2017-05-11T10:14:45.028Z,2645
2017-05-11T10:15:54.449Z,2160
2017-05-11T10:17:04.817Z,1800
2017-05-11T10:18:14.226Z,2065
2017-05-11T10:19:23.960Z,2080
2017-05-11T10:20:33.686Z,1635
2017-05-11T10:21:43.412Z,1500
2017-05-11T10:22:52.821Z,1500
2017-05-11T10:24:02.236Z,1465
2017-05-11T10:25:11.968Z,1750
2017-05-11T10:26:21.392Z,1495
2017-05-11T10:27:31.447Z,1630
2017-05-11T10:28:41.180Z,1410
2017-05-11T10:29:50.635Z,1920
2017-05-11T10:31:00.061Z,2075
2017-05-11T10:32:10.414Z,1575
2017-05-11T10:33:20.143Z,2160
2017-05-11T10:34:30.189Z,3025
2017-05-11T10:35:40.236Z,2795
2017-05-11T10:36:50.288Z,2420
2017-05-11T10:37:59.389Z,3020
2017-05-11T10:39:09.161Z,2110
2017-05-11T10:40:18.892Z,2855
2017-05-11T10:41:28.934Z,2445
2017-05-11T10:42:38.979Z,1455
2017-05-11T10:43:48.729Z,1290
2017-05-11T10:44:57.825Z,1205
2017-05-11T10:46:08.184Z,1685
2017-05-11T10:47:18.236Z,1180
2017-05-11T10:48:27.973Z,1230
2017-05-11T10:49:37.703Z,1230
2017-05-11T10:50:48.072Z,1235
2017-05-11T10:51:57.807Z,1270
2017-05-11T10:53:07.854Z,1340
2017-05-11T10:54:17.584Z,1820
2017-05-11T10:55:27.637Z,2385
2017-05-11T10:56:37.998Z,2400
2017-05-11T10:57:47.719Z,1860
2017-05-11T10:58:57.452Z,2495
2017-05-11T11:00:07.187Z,1865
2017-05-11T11:01:16.606Z,3185
2017-05-11T11:02:26.962Z,3245
2017-05-11T11:03:37.012Z,2800
2017-05-11T11:04:47.070Z,2435
2017-05-11T11:05:56.171Z,2785
2017-05-11T11:07:05.588Z,2480
2017-05-11T11:08:15.635Z,2405
2017-05-11T11:09:25.359Z,1370
2017-05-11T11:10:35.451Z,1480
2017-05-11T11:11:45.175Z,1405
2017-05-11T11:12:54.595Z,1305
2017-05-11T11:14:04.647Z,1410
2017-05-11T11:15:13.757Z,2640
2017-05-11T11:16:24.111Z,1835
2017-05-11T11:17:33.845Z,1825
2017-05-11T11:18:43.578Z,1565
2017-05-11T11:19:53.939Z,1760
2017-05-11T11:21:03.359Z,1985
2017-05-11T11:22:13.403Z,2110
2017-05-11T11:23:23.138Z,2230
2017-05-11T11:24:32.864Z,1520
2017-05-11T11:25:42.915Z,1450
2017-05-11T11:26:52.967Z,1375
2017-05-11T11:28:02.407Z,1280
2017-05-11T11:29:12.150Z,1245
2017-05-11T11:30:21.563Z,1855
2017-05-11T11:31:31.923Z,1665
2017-05-11T11:32:41.653Z,1775
2017-05-11T11:33:51.379Z,1670
2017-05-11T11:35:01.748Z,1275
2017-05-11T11:36:11.478Z,1220
2017-05-11T11:37:21.203Z,1275
2017-05-11T11:38:30.935Z,1155
2017-05-11T11:39:40.977Z,1125
2017-05-11T11:40:50.393Z,1160
2017-05-11T11:42:00.160Z,1280
2017-05-11T11:43:10.519Z,1210
2017-05-11T11:44:20.558Z,1225
2017-05-11T11:45:30.593Z,1250
2017-05-11T11:46:40.634Z,1245
2017-05-11T11:47:50.671Z,1290
2017-05-11T11:49:00.081Z,1280
2017-05-11T11:50:10.124Z,1270
2017-05-11T11:51:20.485Z,1285
2017-05-11T11:52:30.525Z,1505
2017-05-11T11:53:40.265Z,2150
2017-05-11T11:54:50.308Z,2390
2017-05-11T11:55:59.416Z,1390
2017-05-11T11:57:09.476Z,2470
2017-05-11T11:58:18.893Z,1315
2017-05-11T11:59:28.626Z,1340
2017-05-11T12:00:38.674Z,2960
2017-05-11T12:01:48.711Z,1495
2017-05-11T12:02:59.070Z,2135
2017-05-11T12:04:09.438Z,1910
2017-05-11T12:05:19.169Z,1370
2017-05-11T12:06:28.893Z,1295
2017-05-11T12:07:38.938Z,1255
2017-05-11T12:08:48.673Z,1320
2017-05-11T12:09:58.725Z,2860
2017-05-11T12:11:08.767Z,3240
2017-05-11T12:12:19.117Z,2860
2017-05-11T12:13:29.159Z,3300
2017-05-11T12:14:39.199Z,1900
2017-05-11T12:15:48.661Z,2065
2017-05-11T12:16:58.386Z,2750
2017-05-11T12:18:08.120Z,2435
2017-05-11T12:19:17.854Z,2760
2017-05-11T12:20:27.579Z,2580
2017-05-11T12:21:37.319Z,1940
2017-05-11T12:22:47.049Z,2930
2017-05-11T12:23:57.098Z,2950
2017-05-11T12:25:06.525Z,3080
2017-05-11T12:26:16.276Z,2935
2017-05-11T12:27:26.010Z,2305
2017-05-11T12:28:36.060Z,1945
2017-05-11T12:29:46.422Z,1985
2017-05-11T12:30:56.190Z,1845
2017-05-11T12:32:06.231Z,1900
2017-05-11T12:33:15.967Z,2330
2017-05-11T12:34:25.380Z,2380
2017-05-11T12:35:34.490Z,2705
2017-05-11T12:36:44.228Z,2605
2017-05-11T12:37:54.272Z,2090
2017-05-11T12:39:04.311Z,1525
2017-05-11T12:40:14.043Z,1750
2017-05-11T12:41:23.771Z,2300
2017-05-11T12:42:33.809Z,2955
2017-05-11T12:43:43.540Z,2935
2017-05-11T12:44:53.585Z,2700
2017-05-11T12:46:03.632Z,2420
2017-05-11T12:47:13.673Z,2590
2017-05-11T12:48:23.713Z,2620
2017-05-11T12:49:33.439Z,2735
2017-05-11T12:50:43.175Z,2590
2017-05-11T12:51:53.218Z,2615
2017-05-11T12:53:02.643Z,2385
2017-05-11T12:54:12.684Z,1810
2017-05-11T12:55:22.410Z,2150
2017-05-11T12:56:32.142Z,1540
2017-05-11T12:57:41.555Z,1940
2017-05-11T12:58:51.915Z,2190
2017-05-11T13:00:01.956Z,1760
2017-05-11T13:01:11.711Z,1760
2017-05-11T13:02:21.754Z,1200
2017-05-11T13:03:31.486Z,1260
2017-05-11T13:04:41.528Z,1300
2017-05-11T13:05:51.253Z,1370
2017-05-11T13:07:00.975Z,1170
2017-05-11T13:08:10.389Z,1100
2017-05-11T13:09:20.165Z,1070
2017-05-11T13:10:30.207Z,1090
2017-05-11T13:11:40.245Z,1135
2017-05-11T13:12:50.596Z,1200
2017-05-11T13:14:00.954Z,1235
2017-05-11T13:15:11.316Z,1250
2017-05-11T13:16:21.044Z,1300
2017-05-11T13:17:30.779Z,1235
2017-05-11T13:18:40.510Z,1225
2017-05-11T13:19:49.666Z,1235
2017-05-11T13:20:59.083Z,1270
2017-05-11T13:22:09.440Z,1305
2017-05-11T13:23:19.167Z,1350
2017-05-11T13:24:29.518Z,1300
2017-05-11T13:25:39.245Z,1275
2017-05-11T13:26:48.355Z,1265
2017-05-11T13:27:57.768Z,1260
2017-05-11T13:29:07.815Z,1305
2017-05-11T13:30:16.915Z,1470
2017-05-11T13:31:26.642Z,2830
2017-05-11T13:32:37.000Z,2845
2017-05-11T13:33:47.040Z,2910
2017-05-11T13:34:57.397Z,2560
2017-05-11T13:36:07.761Z,1265
2017-05-11T13:37:17.489Z,1195
2017-05-11T13:38:27.228Z,1185
2017-05-11T13:39:37.273Z,1070
2017-05-11T13:40:46.697Z,1050
2017-05-11T13:41:56.424Z,1030
2017-05-11T13:43:06.462Z,1030
2017-05-11T13:44:16.189Z,1045
2017-05-11T13:45:25.604Z,1070
2017-05-11T13:46:35.330Z,1070
2017-05-11T13:47:44.750Z,2025
2017-05-11T13:48:55.107Z,2705
2017-05-11T13:50:04.843Z,2615
2017-05-11T13:51:14.578Z,2580
2017-05-11T13:52:24.622Z,2410
2017-05-11T13:53:34.347Z,2495
2017-05-11T13:54:43.446Z,2525
2017-05-11T13:55:53.174Z,2445
2017-05-11T13:57:03.223Z,2525
2017-05-11T13:58:13.318Z,2460
2017-05-11T13:59:23.684Z,2485
2017-05-11T14:00:34.047Z,2440
2017-05-11T14:01:43.781Z,2510
2017-05-11T14:02:53.832Z,2125
2017-05-11T14:04:03.884Z,1250
2017-05-11T14:05:13.618Z,1980
2017-05-11T14:06:23.979Z,1415
2017-05-11T14:07:34.346Z,2215
2017-05-11T14:08:44.405Z,2095
2017-05-11T14:09:54.490Z,2195
2017-05-11T14:11:04.852Z,2225
2017-05-11T14:12:14.896Z,2185
2017-05-11T14:13:24.950Z,2045
2017-05-11T14:14:34.676Z,1895
2017-05-11T14:15:44.408Z,2020
2017-05-11T14:16:54.136Z,2075
2017-05-11T14:18:03.878Z,2095
2017-05-11T14:19:13.298Z,2165
2017-05-11T14:20:23.029Z,2230
2017-05-11T14:21:32.763Z,2210
2017-05-11T14:22:42.494Z,2115
2017-05-11T14:23:52.544Z,765
2017-05-11T14:25:02.275Z,1930
2017-05-11T14:26:12.327Z,1855
2017-05-11T14:27:22.372Z,2040
2017-05-11T14:28:32.100Z,2195
2017-05-11T14:29:41.834Z,2180
2017-05-11T14:30:50.940Z,1735
2017-05-11T14:32:01.349Z,1630
2017-05-11T14:33:10.767Z,2115
2017-05-11T14:34:19.870Z,2145
2017-05-11T14:35:29.604Z,2210
2017-05-11T14:36:39.650Z,2070
2017-05-11T14:37:49.073Z,1805
2017-05-11T14:38:59.133Z,2045
2017-05-11T14:40:08.562Z,2000
2017-05-11T14:41:18.619Z,1940
2017-05-11T14:42:28.353Z,2080
2017-05-11T14:43:37.777Z,1160
2017-05-11T14:44:47.830Z,2250
2017-05-11T14:45:57.567Z,2205
2017-05-11T14:47:07.303Z,2190
2017-05-11T14:48:17.355Z,2175
2017-05-11T14:49:27.091Z,2300
2017-05-11T14:50:37.138Z,2240
2017-05-11T14:51:46.870Z,2260
2017-05-11T14:52:56.595Z,1085
2017-05-11T14:54:06.638Z,1815
2017-05-11T14:55:16.685Z,1820
2017-05-11T14:56:26.100Z,1915
2017-05-11T14:57:35.215Z,1075
2017-05-11T14:58:44.631Z,1750
2017-05-11T14:59:54.677Z,1720
2017-05-11T15:01:04.100Z,1585
2017-05-11T15:02:13.208Z,1505
2017-05-11T15:03:22.942Z,1350
2017-05-11T15:04:32.686Z,1265
2017-05-11T15:05:42.413Z,1140
2017-05-11T15:06:52.463Z,1065
2017-05-11T15:08:01.887Z,990
2017-05-11T15:09:11.935Z,840
2017-05-11T15:10:21.036Z,755
2017-05-11T15:11:31.078Z,715
2017-05-11T15:12:40.801Z,715
2017-05-11T15:13:49.904Z,660
2017-05-11T15:15:00.271Z,615
2017-05-11T15:16:10.326Z,585
2017-05-11T15:17:20.054Z,575
2017-05-11T15:18:29.779Z,580
2017-05-11T15:19:38.881Z,585
2017-05-11T15:20:48.927Z,605
2017-05-11T15:21:59.275Z,615
2017-05-11T15:23:08.684Z,625
2017-05-11T15:24:17.777Z,640
2017-05-11T15:25:28.132Z,630
2017-05-11T15:26:37.228Z,625
2017-05-11T15:27:47.270Z,635
2017-05-11T15:28:57.304Z,645
2017-05-11T15:30:07.351Z,650
2017-05-11T15:31:16.758Z,660
2017-05-11T15:32:26.480Z,665
2017-05-11T15:33:35.577Z,655
2017-05-11T15:34:45.306Z,650
2017-05-11T15:35:54.722Z,645
2017-05-11T15:37:04.450Z,650
2017-05-11T15:38:13.863Z,675
2017-05-11T15:39:23.275Z,655
2017-05-11T15:40:33.312Z,685
2017-05-11T15:41:43.041Z,625
2017-05-11T15:42:52.450Z,620
2017-05-11T15:44:02.494Z,620
2017-05-11T15:45:12.231Z,625
2017-05-11T15:46:22.598Z,625
2017-05-11T15:47:32.333Z,620
2017-05-11T15:48:42.378Z,610
2017-05-11T15:49:51.795Z,600
2017-05-11T15:51:01.530Z,590
2017-05-11T15:52:11.574Z,585
2017-05-11T15:53:20.991Z,580
2017-05-11T15:54:31.350Z,570
2017-05-11T15:55:41.078Z,565
2017-05-11T15:56:50.807Z,560
2017-05-11T15:58:00.543Z,555
2017-05-11T15:59:10.906Z,550
2017-05-11T16:00:20.322Z,545
2017-05-11T16:01:30.361Z,540